Los Angeles International Airport
KLAX : now visible

Airfield :











YOU CAN JOIN US ON...

 
LOGIN :

Register | Disclaimer

   EN    FR    IT 

 









Legend :    VFR   Marginal VFR   IFR   Intensive IFR   Very Intensive IFR
Visi :
Ceiling :
>= 8 km
>= 3000ft
5 to 8 km
1000 to 3000 ft
1500m to 5 km
500 to 1000 ft
800 to 1500m
200 to 500 ft
< 800m
< 200 ft
Symbols :   Thunderstorms  Fog  Heavy snow  Heavy precipitations  Wind > 20 kt






- Airport Elevation : 125 ft
- IATA code : LAX


KLAX - Los Angeles International

CURRENT METAR :
  • 110418Z 24008KT 10SM SCT008 17/15 A2991 RMK AO2 T01720150

EXPIRED METARs :
  • 110353Z 23008KT 10SM FEW012 17/14 A2991 RMK AO2 SLP126 T01720144
  • 110253Z 27009KT 10SM FEW012 18/14 A2989 RMK AO2 SLP121 T01780144 56005
  • 110153Z 26010KT 10SM FEW012 18/14 A2989 RMK AO2 SLP122 T01830144

TAF KLAX
Valid from the 11 at 03:00 until the 12 at 06:00 UTC


110256Z 1103/1206 26010KT P6SM FEW010
FM110600 26006KT P6SM BKN006
FM111000 VRB03KT 5SM BR OVC005
FM111600 26006KT P6SM BKN009
FM112000 26012KT P6SM FEW015
FM120300 26009KT P6SM FEW012
KZLA FIR / North America



MET'MAP, your aeronautical weather chart ! - Copyright ORBIFLY December 2007 - Disclaimer

ORBIFLY MET'MAP TEAM :

Programming & Development : Alexandra Zaïnal
Concept & original design : Baudouin d'Aumeries
Assistance for programming : Marc-Olivier Méhu
Technical & hardware support : Manuel Goepfert

Contact : metmap@orbifly.com




SOURCES & CREDITS :

   NOAA       Earth
Advisory